createdAt,value
2019-02-18T00:00:47.332Z,101091.80
2019-02-18T00:03:17.038Z,101091.64
2019-02-18T00:05:46.637Z,101093.91
2019-02-18T00:08:15.971Z,101093.80
2019-02-18T00:10:45.315Z,101090.87
2019-02-18T00:13:14.643Z,101096.89
2019-02-18T00:15:43.974Z,101096.47
2019-02-18T00:18:13.343Z,101095.66
2019-02-18T00:20:42.950Z,101095.75
2019-02-18T00:23:12.262Z,101090.78
2019-02-18T00:25:41.947Z,101089.30
2019-02-18T00:28:11.565Z,101090.44
2019-02-18T00:30:40.884Z,101088.39
2019-02-18T00:33:10.212Z,101084.10
2019-02-18T00:35:39.868Z,101088.27
2019-02-18T00:38:09.470Z,101084.53
2019-02-18T00:40:39.091Z,101087.46
2019-02-18T00:43:08.402Z,101082.39
2019-02-18T00:45:37.734Z,101082.69
2019-02-18T00:48:07.053Z,101082.25
2019-02-18T00:50:36.381Z,101086.12
2019-02-18T00:53:06.095Z,101084.73
2019-02-18T00:55:35.446Z,101089.41
2019-02-18T00:58:05.115Z,101089.72
2019-02-18T01:00:34.819Z,101089.30
2019-02-18T01:03:04.348Z,101095.04
2019-02-18T01:05:34.030Z,101090.19
2019-02-18T01:08:03.630Z,101085.38
2019-02-18T01:10:33.446Z,101085.50
2019-02-18T01:13:03.051Z,101084.48
2019-02-18T01:15:32.759Z,101082.44
2019-02-18T01:18:02.474Z,101081.84
2019-02-18T01:20:32.084Z,101076.56
2019-02-18T01:23:01.779Z,101073.93
2019-02-18T01:25:31.217Z,101072.91
2019-02-18T01:28:00.554Z,101072.73
2019-02-18T01:30:30.194Z,101077.55
2019-02-18T01:32:59.885Z,101069.59
2019-02-18T01:35:29.604Z,101064.36
2019-02-18T01:37:59.224Z,101064.95
2019-02-18T01:40:28.926Z,101061.42
2019-02-18T01:42:58.636Z,101077.70
2019-02-18T01:45:27.947Z,101069.50
2019-02-18T01:47:57.645Z,101068.02
2019-02-18T01:50:26.987Z,101070.36
2019-02-18T01:52:56.296Z,101062.56
2019-02-18T01:55:25.628Z,101060.74
2019-02-18T01:57:54.955Z,101054.67
2019-02-18T02:00:24.641Z,101049.86
2019-02-18T02:02:54.244Z,101050.63
2019-02-18T02:05:23.857Z,101043.82
2019-02-18T02:07:56.333Z,101043.48
2019-02-18T02:10:24.363Z,101043.27
2019-02-18T02:13:15.062Z,101047.56
2019-02-18T02:15:44.389Z,101046.23
2019-02-18T02:18:13.738Z,101045.22
2019-02-18T02:20:43.059Z,101050.11
2019-02-18T02:23:12.397Z,101042.96
2019-02-18T02:25:42.037Z,101039.19
2019-02-18T02:28:11.388Z,101034.33
2019-02-18T02:30:40.716Z,101038.72
2019-02-18T02:33:10.441Z,101036.20
2019-02-18T02:35:40.070Z,101035.48
2019-02-18T02:38:09.377Z,101027.66
2019-02-18T02:40:39.186Z,101027.77
2019-02-18T02:43:08.487Z,101016.81
2019-02-18T02:45:38.673Z,101017.49
2019-02-18T02:48:08.026Z,101016.81
2019-02-18T02:50:37.374Z,101008.81
2019-02-18T02:53:06.742Z,101006.27
2019-02-18T02:55:36.128Z,101008.19
2019-02-18T02:58:05.461Z,101006.19
2019-02-18T03:00:35.022Z,101000.61
2019-02-18T03:03:04.366Z,101002.73
2019-02-18T03:05:33.705Z,101008.60
2019-02-18T03:08:03.370Z,100999.04
2019-02-18T03:10:33.075Z,101001.42
2019-02-18T03:13:02.439Z,100998.23
2019-02-18T03:15:31.765Z,100998.06
2019-02-18T03:18:01.332Z,100997.34
2019-02-18T03:20:30.669Z,101000.14
2019-02-18T03:23:00.292Z,100996.31
2019-02-18T03:25:32.190Z,100990.45
2019-02-18T03:28:25.975Z,100996.56
2019-02-18T03:31:03.034Z,101000.05
2019-02-18T03:33:51.795Z,100996.39
2019-02-18T03:36:21.570Z,100989.55
2019-02-18T03:38:50.893Z,100991.69
2019-02-18T03:41:20.261Z,100992.36
2019-02-18T03:43:49.881Z,100992.23
2019-02-18T03:46:19.187Z,100994.05
2019-02-18T03:48:48.547Z,100988.66
2019-02-18T03:51:17.889Z,100991.05
2019-02-18T03:53:47.233Z,100987.34
2019-02-18T03:56:16.915Z,100989.05
2019-02-18T03:58:46.209Z,100989.25
2019-02-18T04:01:15.900Z,100991.42
2019-02-18T04:03:45.505Z,100984.36
2019-02-18T04:06:14.831Z,100985.92
2019-02-18T04:08:44.171Z,100988.09
2019-02-18T04:11:13.572Z,100991.57
2019-02-18T04:13:43.207Z,100989.70
2019-02-18T04:16:12.525Z,100987.85
2019-02-18T04:18:41.858Z,100983.48
2019-02-18T04:21:11.231Z,100986.88
2019-02-18T04:23:40.731Z,100985.74
2019-02-18T04:26:10.421Z,100988.20
2019-02-18T04:28:40.153Z,100989.28
2019-02-18T04:31:09.486Z,100988.38
2019-02-18T04:33:38.871Z,100991.42
2019-02-18T04:36:08.342Z,100985.80
2019-02-18T04:38:38.063Z,100986.53
2019-02-18T04:41:07.766Z,100982.23
2019-02-18T04:43:37.117Z,100981.44
2019-02-18T04:46:06.452Z,100977.98
2019-02-18T04:48:36.068Z,100980.06
2019-02-18T04:51:05.420Z,100982.14
2019-02-18T04:53:35.070Z,100977.45
2019-02-18T04:56:04.535Z,100975.82
2019-02-18T04:58:33.869Z,100976.11
2019-02-18T05:01:03.210Z,100976.09
2019-02-18T05:03:32.899Z,100974.21
2019-02-18T05:06:02.262Z,100971.80
2019-02-18T05:08:31.604Z,100972.45
2019-02-18T05:11:01.310Z,100971.80
2019-02-18T05:13:31.115Z,100970.75
2019-02-18T05:16:00.799Z,100969.99
2019-02-18T05:18:30.417Z,100975.55
2019-02-18T05:21:00.124Z,100970.37
2019-02-18T05:23:29.516Z,100974.64
2019-02-18T05:25:58.850Z,100972.09
2019-02-18T05:28:28.179Z,100971.83
2019-02-18T05:30:57.522Z,100967.78
2019-02-18T05:33:27.142Z,100966.47
2019-02-18T05:35:56.471Z,100967.59
2019-02-18T05:38:25.809Z,100964.95
2019-02-18T05:40:55.549Z,100972.20
2019-02-18T05:43:24.892Z,100967.70
2019-02-18T05:45:54.240Z,100968.06
2019-02-18T05:48:23.549Z,100972.59
2019-02-18T05:50:53.073Z,100976.81
2019-02-18T05:53:22.439Z,100972.77
2019-02-18T05:55:51.761Z,100980.20
2019-02-18T05:58:21.467Z,100969.78
2019-02-18T06:00:51.172Z,100970.63
2019-02-18T06:03:20.888Z,100974.58
2019-02-18T06:05:50.502Z,100983.88
2019-02-18T06:08:19.852Z,100982.36
2019-02-18T06:10:49.200Z,100982.66
2019-02-18T06:13:18.503Z,100992.05
2019-02-18T06:15:47.861Z,100994.42
2019-02-18T06:18:17.610Z,100991.48
2019-02-18T06:20:47.290Z,100993.09
2019-02-18T06:23:16.905Z,100991.69
2019-02-18T06:25:46.243Z,101001.27
2019-02-18T06:28:15.591Z,100999.59
2019-02-18T06:30:44.917Z,101001.19
2019-02-18T06:33:14.596Z,101006.25
2019-02-18T06:35:43.904Z,101006.53
2019-02-18T06:38:13.505Z,101007.75
2019-02-18T06:40:43.107Z,101004.19
2019-02-18T06:43:12.442Z,101005.02
2019-02-18T06:45:43.807Z,101011.23
2019-02-18T06:48:20.839Z,101016.03
2019-02-18T06:50:53.268Z,101022.15
2019-02-18T06:53:22.928Z,101015.92
2019-02-18T06:55:52.319Z,101012.82
2019-02-18T06:58:33.470Z,101019.28
2019-02-18T07:01:04.431Z,101017.69
2019-02-18T07:03:35.500Z,101017.96
2019-02-18T07:06:12.584Z,101023.94
2019-02-18T07:08:49.755Z,101017.73
2019-02-18T07:11:21.103Z,101016.10
2019-02-18T07:13:50.458Z,101017.03
2019-02-18T07:16:19.778Z,101012.75
2019-02-18T07:18:49.109Z,101013.09
2019-02-18T07:21:18.715Z,101017.33
2019-02-18T07:23:48.124Z,101014.70
2019-02-18T07:26:17.464Z,101002.39
2019-02-18T07:28:46.778Z,101010.77
2019-02-18T07:31:16.106Z,101009.36
2019-02-18T07:33:45.724Z,101006.52
2019-02-18T07:36:15.037Z,101004.23
2019-02-18T07:38:44.719Z,101009.03
2019-02-18T07:41:14.057Z,101013.24
2019-02-18T07:43:43.409Z,101009.63
2019-02-18T07:46:13.012Z,101012.34
2019-02-18T07:48:42.338Z,101002.34
2019-02-18T07:51:11.990Z,100998.07
2019-02-18T07:53:41.319Z,101001.67
2019-02-18T07:56:10.914Z,100997.06
2019-02-18T07:58:40.633Z,100996.53
2019-02-18T08:01:10.249Z,100990.63
2019-02-18T08:03:39.591Z,100992.35
2019-02-18T08:06:08.927Z,100994.33
2019-02-18T08:08:38.274Z,100990.22
2019-02-18T08:11:07.596Z,100990.56
2019-02-18T08:13:36.986Z,100984.86
2019-02-18T08:16:06.357Z,100983.92
2019-02-18T08:18:35.949Z,100987.98
2019-02-18T08:21:05.671Z,100987.81
2019-02-18T08:23:35.010Z,100986.58
2019-02-18T08:26:05.053Z,100986.41
2019-02-18T08:28:34.343Z,100984.87
2019-02-18T08:31:03.934Z,100986.76
2019-02-18T08:33:33.573Z,100983.31
2019-02-18T08:36:03.242Z,100982.59
2019-02-18T08:38:32.916Z,100979.05
2019-02-18T08:41:02.246Z,100986.04
2019-02-18T08:43:31.688Z,100988.07
2019-02-18T08:46:01.026Z,100982.54
2019-02-18T08:48:30.367Z,100988.23
2019-02-18T08:50:59.791Z,100980.92
2019-02-18T08:53:29.109Z,100982.97
2019-02-18T08:55:58.437Z,100977.22
2019-02-18T08:58:27.795Z,100977.71
2019-02-18T09:01:02.557Z,100977.47
2019-02-18T09:03:28.164Z,100976.14
2019-02-18T09:05:57.558Z,100971.20
2019-02-18T09:08:26.925Z,100970.34
2019-02-18T09:10:56.233Z,100969.02
2019-02-18T09:13:25.541Z,100962.37
2019-02-18T09:16:00.002Z,100961.39
2019-02-18T09:18:26.215Z,100964.52
2019-02-18T09:20:55.524Z,100956.89
2019-02-18T09:23:26.517Z,100961.41
2019-02-18T09:25:56.022Z,100956.42
2019-02-18T09:28:25.631Z,100952.07
2019-02-18T09:30:55.219Z,100957.80
2019-02-18T09:33:24.564Z,100956.56
2019-02-18T09:35:54.176Z,100957.81
2019-02-18T09:38:25.392Z,100951.47
2019-02-18T09:40:54.834Z,100950.41
2019-02-18T09:43:24.157Z,100941.56
2019-02-18T09:45:53.512Z,100949.87
2019-02-18T09:48:22.843Z,100940.55
2019-02-18T09:50:52.579Z,100945.68
2019-02-18T09:53:21.903Z,100940.58
2019-02-18T09:55:51.264Z,100936.03
2019-02-18T09:58:20.946Z,100938.16
2019-02-18T10:00:50.380Z,100941.48
2019-02-18T10:03:20.169Z,100940.30
2019-02-18T10:05:49.508Z,100941.46
2019-02-18T10:08:19.171Z,100935.34
2019-02-18T10:10:55.762Z,100935.20
2019-02-18T10:13:19.579Z,100924.95
2019-02-18T10:15:49.322Z,100928.60
2019-02-18T10:18:18.936Z,100920.80
2019-02-18T10:20:48.507Z,100921.15
2019-02-18T10:23:18.112Z,100914.48
2019-02-18T10:25:47.725Z,100904.16
2019-02-18T10:28:17.305Z,100904.06
2019-02-18T10:30:46.654Z,100901.64
2019-02-18T10:33:16.264Z,100899.78
2019-02-18T10:35:45.604Z,100892.95
2019-02-18T10:38:15.369Z,100886.61
2019-02-18T10:40:44.770Z,100888.66
2019-02-18T10:43:14.086Z,100875.81
2019-02-18T10:45:43.511Z,100883.11
2019-02-18T10:48:12.858Z,100874.58
2019-02-18T10:50:42.493Z,100869.14
2019-02-18T10:53:11.829Z,100871.50
2019-02-18T10:55:41.437Z,100866.80
2019-02-18T10:58:10.800Z,100858.27
2019-02-18T11:00:40.388Z,100862.19
2019-02-18T11:03:09.705Z,100853.80
2019-02-18T11:05:39.473Z,100853.84
2019-02-18T11:08:09.617Z,100845.42
2019-02-18T11:10:39.233Z,100838.02
2019-02-18T11:13:08.585Z,100833.20
2019-02-18T11:15:37.920Z,100831.80
2019-02-18T11:18:07.261Z,100825.42
2019-02-18T11:20:36.660Z,100824.17
2019-02-18T11:23:06.000Z,100824.98
2019-02-18T11:25:35.316Z,100812.76
2019-02-18T11:28:04.885Z,100811.32
2019-02-18T11:30:34.478Z,100812.28
2019-02-18T11:33:04.096Z,100809.72
2019-02-18T11:35:33.412Z,100799.88
2019-02-18T11:38:03.014Z,100799.34
2019-02-18T11:40:32.610Z,100799.78
2019-02-18T11:43:02.217Z,100790.30
2019-02-18T11:45:31.563Z,100794.23
2019-02-18T11:48:01.188Z,100784.86
2019-02-18T11:50:30.520Z,100782.39
2019-02-18T11:52:59.863Z,100780.11
2019-02-18T11:55:29.671Z,100771.55
2019-02-18T11:57:59.020Z,100772.73
2019-02-18T12:00:28.627Z,100766.03
2019-02-18T12:03:03.660Z,100763.40
2019-02-18T12:05:29.344Z,100763.09
2019-02-18T12:07:58.715Z,100757.66
2019-02-18T12:10:28.661Z,100753.68
2019-02-18T12:12:58.251Z,100752.63
2019-02-18T12:15:27.639Z,100744.00
2019-02-18T12:18:00.360Z,100747.27
2019-02-18T12:20:30.044Z,100742.89
2019-02-18T12:22:59.416Z,100740.36
2019-02-18T12:25:28.764Z,100728.48
2019-02-18T12:27:59.993Z,100721.63
2019-02-18T12:30:29.710Z,100715.52
2019-02-18T12:32:59.035Z,100715.65
2019-02-18T12:35:32.663Z,100713.83
2019-02-18T12:37:59.981Z,100712.67
2019-02-18T12:40:29.662Z,100708.33
2019-02-18T12:42:58.989Z,100709.09
2019-02-18T12:45:28.796Z,100697.02
2019-02-18T12:47:58.352Z,100694.50
2019-02-18T12:50:27.690Z,100695.84
2019-02-18T12:52:57.417Z,100695.70
2019-02-18T12:55:26.959Z,100697.19
2019-02-18T12:57:56.706Z,100689.30
2019-02-18T13:00:26.083Z,100685.42
2019-02-18T13:02:55.837Z,100687.70
2019-02-18T13:05:25.177Z,100679.88
2019-02-18T13:07:54.546Z,100679.36
2019-02-18T13:10:34.481Z,100675.44
2019-02-18T13:12:55.783Z,100677.88
2019-02-18T13:15:25.216Z,100668.29
2019-02-18T13:17:54.556Z,100663.67
2019-02-18T13:20:23.890Z,100667.05
2019-02-18T13:22:53.593Z,100666.84
2019-02-18T13:25:23.308Z,100664.52
2019-02-18T13:27:52.915Z,100661.25
2019-02-18T13:30:22.250Z,100651.96
2019-02-18T13:32:51.908Z,100663.17
2019-02-18T13:35:21.262Z,100653.17
2019-02-18T13:37:50.601Z,100654.14
2019-02-18T13:40:19.960Z,100651.69
2019-02-18T13:42:49.830Z,100641.86
2019-02-18T13:45:19.174Z,100644.76
2019-02-18T13:47:48.495Z,100645.05
2019-02-18T13:50:18.158Z,100640.00
2019-02-18T13:52:47.509Z,100641.47
2019-02-18T13:55:17.087Z,100642.58
2019-02-18T13:57:46.771Z,100642.50
2019-02-18T14:00:21.198Z,100637.13
2019-02-18T14:02:51.554Z,100637.53
2019-02-18T14:05:22.218Z,100639.25
2019-02-18T14:07:51.583Z,100637.88
2019-02-18T14:10:21.729Z,100636.87
2019-02-18T14:12:51.065Z,100640.30
2019-02-18T14:15:21.187Z,100636.81
2019-02-18T14:17:50.802Z,100635.08
2019-02-18T14:20:20.515Z,100630.04
2019-02-18T14:22:50.212Z,100628.64
2019-02-18T14:25:19.548Z,100635.25
2019-02-18T14:27:49.228Z,100623.98
2019-02-18T14:30:19.580Z,100632.17
2019-02-18T14:32:49.364Z,100632.73
2019-02-18T14:35:19.383Z,100628.09
2019-02-18T14:37:49.236Z,100633.47
2019-02-18T14:40:20.469Z,100624.95
2019-02-18T14:42:50.752Z,100619.62
2019-02-18T14:45:20.579Z,100617.23
2019-02-18T14:47:50.178Z,100617.38
2019-02-18T14:50:19.990Z,100616.15
2019-02-18T14:52:49.700Z,100617.88
2019-02-18T14:55:19.043Z,100614.56
2019-02-18T14:57:48.707Z,100616.34
2019-02-18T15:00:24.134Z,100611.42
2019-02-18T15:02:57.038Z,100611.89
2019-02-18T15:05:27.560Z,100616.08
2019-02-18T15:07:57.188Z,100611.13
2019-02-18T15:10:26.791Z,100613.30
2019-02-18T15:12:56.156Z,100606.42
2019-02-18T15:15:25.802Z,100601.52
2019-02-18T15:17:55.509Z,100600.17
2019-02-18T15:20:24.927Z,100600.38
2019-02-18T15:22:54.625Z,100600.13
2019-02-18T15:25:23.960Z,100597.75
2019-02-18T15:27:53.293Z,100594.06
2019-02-18T15:30:22.998Z,100595.80
2019-02-18T15:32:52.686Z,100586.48
2019-02-18T15:35:22.458Z,100588.66
2019-02-18T15:37:52.088Z,100588.19
2019-02-18T15:40:21.763Z,100581.23
2019-02-18T15:42:51.370Z,100579.92
2019-02-18T15:45:20.979Z,100567.44
2019-02-18T15:47:50.323Z,100577.20
2019-02-18T15:50:19.919Z,100572.27
2019-02-18T15:52:49.596Z,100576.05
2019-02-18T15:55:18.949Z,100576.25
2019-02-18T15:57:48.327Z,100579.10
2019-02-18T16:00:24.863Z,100570.58
2019-02-18T16:02:54.183Z,100577.13
2019-02-18T16:05:23.534Z,100577.53
2019-02-18T16:07:52.850Z,100572.67
2019-02-18T16:10:22.500Z,100566.82
2019-02-18T16:12:51.846Z,100565.64
2019-02-18T16:15:21.162Z,100562.00
2019-02-18T16:17:50.497Z,100565.89
2019-02-18T16:20:19.862Z,100559.22
2019-02-18T16:22:49.262Z,100565.41
2019-02-18T16:25:24.260Z,100564.23
2019-02-18T16:27:53.626Z,100568.23
2019-02-18T16:30:23.755Z,100569.41
2019-02-18T16:32:53.223Z,100570.39
2019-02-18T16:35:22.597Z,100567.22
2019-02-18T16:37:51.948Z,100560.72
2019-02-18T16:40:21.920Z,100562.18
2019-02-18T16:42:59.114Z,100562.64
2019-02-18T16:45:22.685Z,100569.10
2019-02-18T16:47:53.061Z,100567.09
2019-02-18T16:50:22.384Z,100571.23
2019-02-18T16:52:51.722Z,100569.02
2019-02-18T16:55:21.366Z,100580.81
2019-02-18T16:57:51.402Z,100576.80
2019-02-18T17:00:22.381Z,100577.24
2019-02-18T17:02:52.062Z,100588.33
2019-02-18T17:05:21.840Z,100587.20
2019-02-18T17:07:51.559Z,100582.46
2019-02-18T17:10:20.924Z,100583.63
2019-02-18T17:12:50.559Z,100587.22
2019-02-18T17:15:20.182Z,100583.02
2019-02-18T17:17:49.780Z,100588.81
2019-02-18T17:20:19.417Z,100592.27
2019-02-18T17:22:48.789Z,100595.18
2019-02-18T17:25:18.682Z,100582.91
2019-02-18T17:27:48.322Z,100588.52
2019-02-18T17:30:17.775Z,100586.21
2019-02-18T17:32:47.089Z,100584.17
2019-02-18T17:35:16.450Z,100586.77
2019-02-18T17:37:45.793Z,100583.47
2019-02-18T17:40:15.601Z,100581.57
2019-02-18T17:42:45.203Z,100581.08
2019-02-18T17:45:19.179Z,100582.15
2019-02-18T17:47:48.507Z,100580.06
2019-02-18T17:50:18.634Z,100579.84
2019-02-18T17:52:47.927Z,100584.29
2019-02-18T17:55:21.764Z,100577.27
2019-02-18T17:57:51.482Z,100577.91
2019-02-18T18:00:27.032Z,100582.50
2019-02-18T18:02:56.627Z,100579.00
2019-02-18T18:05:26.251Z,100575.05
2019-02-18T18:07:55.595Z,100572.66
2019-02-18T18:10:24.909Z,100576.84
2019-02-18T18:12:54.244Z,100575.59
2019-02-18T18:15:23.850Z,100579.54
2019-02-18T18:17:53.176Z,100583.03
2019-02-18T18:20:22.826Z,100582.41
2019-02-18T18:22:52.151Z,100583.09
2019-02-18T18:25:22.060Z,100582.75
2019-02-18T18:27:51.813Z,100586.76
2019-02-18T18:30:21.608Z,100578.12
2019-02-18T18:32:51.330Z,100581.86
2019-02-18T18:35:20.645Z,100578.59
2019-02-18T18:37:49.985Z,100580.00
2019-02-18T18:40:20.330Z,100584.58
2019-02-18T18:42:49.675Z,100578.84
2019-02-18T18:45:19.708Z,100580.89
2019-02-18T18:47:49.044Z,100589.64
2019-02-18T18:50:23.146Z,100582.02
2019-02-18T18:52:52.792Z,100593.13
2019-02-18T18:55:22.132Z,100590.28
2019-02-18T18:57:51.817Z,100589.02
2019-02-18T19:00:25.326Z,100580.48
2019-02-18T19:02:54.995Z,100588.22
2019-02-18T19:05:24.638Z,100583.39
2019-02-18T19:07:54.031Z,100588.87
2019-02-18T19:10:23.345Z,100587.11
2019-02-18T19:12:52.686Z,100581.94
2019-02-18T19:15:22.053Z,100583.61
2019-02-18T19:17:51.408Z,100583.68
2019-02-18T19:20:21.125Z,100581.23
2019-02-18T19:22:50.742Z,100585.63
2019-02-18T19:25:20.433Z,100582.13
2019-02-18T19:27:50.038Z,100576.67
2019-02-18T19:30:34.417Z,100580.70
2019-02-18T19:33:03.718Z,100584.12
2019-02-18T19:35:33.050Z,100582.91
2019-02-18T19:38:02.658Z,100578.94
2019-02-18T19:40:32.412Z,100581.19
2019-02-18T19:43:01.726Z,100586.37
2019-02-18T19:45:31.433Z,100582.11
2019-02-18T19:48:01.141Z,100580.73
2019-02-18T19:50:30.842Z,100575.98
2019-02-18T19:53:00.566Z,100578.45
2019-02-18T19:55:30.213Z,100572.17
2019-02-18T19:58:00.187Z,100572.97
2019-02-18T20:00:29.581Z,100574.70
2019-02-18T20:02:59.317Z,100571.35
2019-02-18T20:05:28.915Z,100564.67
2019-02-18T20:07:58.602Z,100565.91
2019-02-18T20:10:27.906Z,100558.39
2019-02-18T20:12:57.638Z,100562.37
2019-02-18T20:15:27.222Z,100559.11
2019-02-18T20:17:56.789Z,100563.19
2019-02-18T20:20:26.332Z,100560.80
2019-02-18T20:22:55.958Z,100562.82
2019-02-18T20:25:25.315Z,100566.64
2019-02-18T20:27:55.119Z,100561.95
2019-02-18T20:30:24.794Z,100562.61
2019-02-18T20:32:54.177Z,100557.22
2019-02-18T20:35:24.043Z,100564.02
2019-02-18T20:37:54.008Z,100553.52
2019-02-18T20:40:23.972Z,100553.52
2019-02-18T20:42:53.415Z,100553.03
2019-02-18T20:45:23.065Z,100551.34
2019-02-18T20:47:52.787Z,100545.27
2019-02-18T20:50:22.604Z,100548.96
2019-02-18T20:52:52.395Z,100540.92
2019-02-18T20:55:21.958Z,100542.16
2019-02-18T20:57:51.753Z,100543.98
2019-02-18T21:00:21.527Z,100537.45
2019-02-18T21:02:50.889Z,100536.69
2019-02-18T21:05:20.266Z,100532.05
2019-02-18T21:07:50.209Z,100521.82
2019-02-18T21:10:21.897Z,100529.66
2019-02-18T21:12:51.617Z,100534.91
2019-02-18T21:15:21.433Z,100531.17
2019-02-18T21:17:50.795Z,100534.35
2019-02-18T21:20:20.546Z,100534.23
2019-02-18T21:22:50.302Z,100528.00
2019-02-18T21:25:20.099Z,100528.84
2019-02-18T21:27:49.515Z,100532.41
2019-02-18T21:30:19.565Z,100526.41
2019-02-18T21:32:49.299Z,100523.39
2019-02-18T21:35:19.083Z,100527.80
2019-02-18T21:37:49.014Z,100524.42
2019-02-18T21:40:18.379Z,100525.95
2019-02-18T21:42:48.028Z,100523.20
2019-02-18T21:45:17.439Z,100519.97
2019-02-18T21:47:46.864Z,100522.66
2019-02-18T21:50:16.536Z,100522.99
2019-02-18T21:52:46.170Z,100517.23
2019-02-18T21:55:15.544Z,100517.11
2019-02-18T21:57:44.894Z,100522.53
2019-02-18T22:00:21.667Z,100527.45
2019-02-18T22:02:51.603Z,100523.97
2019-02-18T22:05:20.984Z,100523.97
2019-02-18T22:07:50.655Z,100525.07
2019-02-18T22:10:20.362Z,100527.02
2019-02-18T22:12:50.083Z,100520.62
2019-02-18T22:15:19.779Z,100519.67
2019-02-18T22:17:49.492Z,100511.37
2019-02-18T22:20:20.817Z,100516.34
2019-02-18T22:22:50.454Z,100512.84
2019-02-18T22:25:20.179Z,100512.63
2019-02-18T22:27:49.596Z,100509.36
2019-02-18T22:30:19.273Z,100505.39
2019-02-18T22:32:49.005Z,100511.52
2019-02-18T22:35:19.109Z,100509.73
2019-02-18T22:37:48.818Z,100505.77
2019-02-18T22:40:18.208Z,100507.67
2019-02-18T22:42:47.926Z,100506.02
2019-02-18T22:45:17.638Z,100500.00
2019-02-18T22:47:47.027Z,100492.55
2019-02-18T22:50:16.856Z,100500.15
2019-02-18T22:52:46.237Z,100497.98
2019-02-18T22:55:15.971Z,100499.27
2019-02-18T22:57:45.333Z,100503.27
2019-02-18T23:00:30.656Z,100497.98
2019-02-18T23:03:00.680Z,100496.33
2019-02-18T23:05:30.375Z,100500.66
2019-02-18T23:08:00.095Z,100502.69
2019-02-18T23:10:29.782Z,100504.38
2019-02-18T23:12:59.495Z,100497.66
2019-02-18T23:15:29.415Z,100505.44
2019-02-18T23:17:59.415Z,100507.49
2019-02-18T23:20:29.133Z,100501.98
2019-02-18T23:22:58.857Z,100500.80
2019-02-18T23:25:28.221Z,100502.97
2019-02-18T23:27:57.587Z,100509.80
2019-02-18T23:30:27.266Z,100501.65
2019-02-18T23:32:57.384Z,100506.56
2019-02-18T23:35:27.029Z,100498.05
2019-02-18T23:37:56.471Z,100500.23
2019-02-18T23:40:25.837Z,100500.83
2019-02-18T23:42:55.188Z,100495.94
2019-02-18T23:45:24.913Z,100492.44
2019-02-18T23:47:54.617Z,100491.48
2019-02-18T23:50:24.313Z,100494.13
2019-02-18T23:52:53.739Z,100489.55
2019-02-18T23:55:23.087Z,100490.88
2019-02-18T23:57:52.842Z,100487.89
